Terminal Aerodrome Forecast
Issued by NWS

Home | Current Version | Previous Version | Text Only | Print | Product List | Glossary On
Versions: 1 2 3 4 5 6 7 8 9 10 11 12 13 14
000
FTUS43 KDTX 270524
TAFDET
TAF
KDET 270524Z 2706/2806 14007KT P6SM FEW070 OVC250
     FM271400 18018G28KT P6SM -SHRA BKN040 BKN100 PROB30 2717/2719
      3SM TSRA OVC025CB
     FM271900 24018G28KT P6SM BKN040
     FM280100 24015KT P6SM SCT040=

USA.gov is the U.S. government's official web portal to all federal, state and local government web resources and services.